Latest Coastal Weather Observations for Evans Head

IDN60701

Issued at 7:31 am EST Saturday 20 July 2019 (issued every 10 minutes, with the page automatically refreshed every 10 minutes)

About coastal observations | Map of coastal stations | Coastal observations for NSW | Marine services | Other Formats
Station Details ID: 058212 Name: EVANS HEAD RAAF BOMBING RANGE AWS Lat: -29.18 Lon: 153.40 Height: 62.5 m
Data from the previous 72 hours. | See also: Recent months at Evans Head
Date/Time
EST
Wind Sea
Height
m
Swell Vis
km
Cloud Weather Temp
°C
Press
hPa
Rain since
9am
mm
Dir  Spd
kts
Gust
kts
Height
m
Period
s
Dir
20/07:30am WSW 9 13 - - - - - - - 11.3 1024.1 0.0
20/07:00am WSW 8 11 - - - - - - - 10.1 1023.7 0.0
20/06:30am SW 8 10 - - - - - - - 9.9 1023.5 0.0
20/06:00am SW 8 10 - - - - - - - 10.0 1023.1 0.0
20/05:30am SW 8 10 - - - - - - - 10.4 1022.8 0.0
20/05:00am SW 8 10 - - - - - - - 10.5 1022.5 0.0
20/04:30am SW 8 11 - - - - - - - 10.4 1022.5 0.0
20/04:00am SW 7 10 - - - - - - - 11.0 1022.3 0.0
20/03:30am SW 9 15 - - - - - - - 11.3 1022.2 0.0
20/03:00am SW 9 13 - - - - - - - 11.6 1022.3 0.0
20/02:30am SW 8 11 - - - - - - - 11.5 1022.4 0.0
20/02:00am SW 9 12 - - - - - - - 11.7 1022.4 0.0
20/01:30am SW 9 12 - - - - - - - 12.0 1022.3 0.0
20/01:00am SW 9 13 - - - - - - - 12.0 1022.5 0.0
20/12:30am SW 9 11 - - - - - - - 12.1 1022.5 0.0
20/12:00am SW 10 14 - - - - - - - 12.7 1022.3 0.0
 
Date/Time
EST
Wind Sea
Height
m
Swell Vis
km
Cloud Weather Temp
°C
Press
hPa
Rain since
9am
mm
Dir  Spd
kts
Gust
kts
Height
m
Period
s
Dir
19/11:30pm SSW 9 13 - - - - - - - 13.0 1022.3 0.0
19/11:00pm SSW 8 12 - - - - - - - 12.8 1022.3 0.0
19/10:30pm SSW 8 10 - - - - - - - 13.1 1022.2 0.0
19/10:00pm SSW 7 9 - - - - - - - 12.7 1022.0 0.0
19/09:30pm SW 6 7 - - - - - - - 13.4 1021.7 0.0
19/09:00pm S 4 5 - - - - - - - 14.8 1021.4 0.0
19/08:30pm E 3 4 - - - - - - - 16.3 1021.2 0.0
19/08:00pm NNE 2 3 - - - - - - - 15.4 1020.8 0.0
19/07:30pm E 4 5 - - - - - - - 16.4 1020.6 0.0
19/07:00pm E 4 5 - - - - - - - 16.5 1020.2 0.0
19/06:30pm ENE 5 5 - - - - - - - 16.5 1019.8 0.0
19/06:00pm NE 5 6 - - - - - - - 16.1 1019.4 0.0
19/05:30pm NNE 6 7 - - - - - - - 16.3 1018.9 0.0
19/05:00pm N 3 5 - - - - - - - 16.3 1018.5 0.0
19/04:30pm NNW 3 5 - - - - - - - 17.5 1018.2 0.0
19/04:00pm NNW 5 7 - - - - - - - 19.2 1018.1 0.0
19/03:30pm NNW 5 8 - - - - - - - 20.5 1018.0 0.0
19/03:00pm NW 7 11 - - - - - - - 21.4 1017.8 0.0
19/02:30pm NNW 8 13 - - - - - - - 21.8 1017.8 0.0
19/02:00pm NNW 7 14 - - - - - - - 21.8 1018.1 0.0
19/01:30pm NNW 8 13 - - - - - - - 22.2 1018.3 0.0
19/01:00pm NW 7 11 - - - - - - - 21.8 1018.5 0.0
19/12:30pm NW 6 9 - - - - - - - 21.4 1018.8 0.0
19/12:00pm NW 9 15 - - - - - - - 21.2 1019.0 0.0
19/11:30am WNW 6 13 - - - - - - - 20.2 1019.6 0.0
19/11:00am WNW 6 9 - - - - - - - 18.4 1020.1 0.0
19/10:30am W 8 10 - - - - - - - 16.0 1020.5 0.0
19/10:00am W 5 8 - - - - - - - 15.7 1020.6 0.0
19/09:30am W 6 9 - - - - - - - 14.3 1020.8 0.0
19/09:00am W 5 7 - - - - - - - 14.3 1020.6 0.0
19/08:30am WNW 5 10 - - - - - - - 13.4 1020.4 0.0
19/08:00am W 6 9 - - - - - - - 11.4 1020.2 0.0
19/07:30am W 7 9 - - - - - - - 9.9 1019.9 0.0
19/07:00am WNW 7 10 - - - - - - - 8.5 1019.6 0.0
19/06:30am WNW 8 10 - - - - - - - 8.7 1019.2 0.0
19/06:00am WNW 8 10 - - - - - - - 8.5 1018.8 0.0
19/05:30am WNW 9 11 - - - - - - - 8.3 1018.6 0.0
19/05:00am NW 6 7 - - - - - - - 5.9 1018.6 0.0
19/04:30am NW 5 6 - - - - - - - 6.9 1018.5 0.0
19/04:00am WNW 5 7 - - - - - - - 8.0 1018.4 0.0
19/03:30am WNW 5 7 - - - - - - - 9.1 1018.3 0.0
19/03:00am W 5 8 - - - - - - - 10.5 1018.4 0.0
19/02:30am W 5 7 - - - - - - - 11.6 1018.5 0.0
19/02:00am W 7 9 - - - - - - - 11.8 1018.2 0.0
19/01:30am W 7 9 - - - - - - - 11.8 1018.2 0.0
19/01:00am W 7 9 - - - - - - - 11.7 1018.3 0.0
19/12:30am W 7 9 - - - - - - - 11.8 1018.5 0.0
19/12:00am W 8 9 - - - - - - - 12.6 1018.5 0.0
 
Date/Time
EST
Wind Sea
Height
m
Swell Vis
km
Cloud Weather Temp
°C
Press
hPa
Rain since
9am
mm
Dir  Spd
kts
Gust
kts
Height
m
Period
s
Dir
18/11:30pm W 9 9 - - - - - - - 13.0 1018.5 0.0
18/11:00pm WSW 6 7 - - - - - - - 14.4 1018.4 0.0
18/10:30pm W 6 6 - - - - - - - 14.4 1018.4 0.0
18/10:00pm W 6 7 - - - - - - - 14.2 1018.2 0.0
18/09:30pm WSW 4 5 - - - - - - - 14.0 1018.1 0.0
18/09:00pm WSW 4 5 - - - - - - - 13.8 1018.0 0.0
18/08:30pm CALM 0 0 - - - - - - - 14.2 1017.8 0.0
18/08:00pm CALM 0 0 - - - - - - - 14.2 1017.5 0.0
18/07:30pm ENE 3 4 - - - - - - - 14.9 1017.1 0.0
18/07:00pm NNE 3 4 - - - - - - - 14.3 1016.7 0.0
18/06:30pm NNW 3 5 - - - - - - - 13.1 1016.2 0.0
18/06:00pm NNW 4 5 - - - - - - - 13.0 1015.8 0.0
18/05:30pm ENE 4 5 - - - - - - - 13.6 1015.5 0.0
18/05:00pm ESE 5 6 - - - - - - - 14.7 1015.3 0.0
18/04:30pm ESE 5 6 - - - - - - - 15.4 1015.1 0.0
18/04:00pm SE 5 8 - - - - - - - 16.0 1015.1 0.0
18/03:30pm SE 7 9 - - - - - - - 16.7 1015.0 0.0
18/03:00pm SE 8 11 - - - - - - - 17.3 1014.8 0.0
18/02:30pm SSE 9 15 - - - - - - - 18.0 1014.6 0.0
18/02:00pm SE 8 11 - - - - - - - 18.2 1014.8 0.0
18/01:30pm SSE 8 10 - - - - - - - 18.3 1014.7 0.0
18/01:00pm SSE 11 15 - - - - - - - 18.2 1014.8 0.0
18/12:30pm SSE 13 19 - - - - - - - 18.1 1014.8 0.0
18/12:00pm SSW 9 16 - - - - - - - 18.0 1015.2 0.0
18/11:30am W 5 10 - - - - - - - 18.2 1015.7 0.0
18/11:00am WSW 6 12 - - - - - - - 16.6 1016.1 0.0
18/10:30am SW 9 15 - - - - - - - 15.8 1016.2 0.0
18/10:00am SW 11 18 - - - - - - - 15.0 1016.6 0.0
18/09:30am WSW 7 14 - - - - - - - 13.9 1016.9 0.0
18/09:00am WSW 9 15 - - - - - - - 13.2 1016.6 0.0
18/08:30am WSW 5 8 - - - - - - - 12.4 1016.5 0.0
18/08:00am W 6 9 - - - - - - - 11.0 1016.4 0.0
18/07:30am WSW 7 9 - - - - - - - 9.9 1015.9 0.0
18/07:00am SW 8 10 - - - - - - - 8.9 1015.6 0.0
18/06:30am W 7 9 - - - - - - - 9.5 1014.9 0.0
18/06:00am WSW 5 7 - - - - - - - 10.0 1014.8 0.0
18/05:30am W 6 10 - - - - - - - 10.4 1014.5 0.0
18/05:00am WNW 9 13 - - - - - - - 10.2 1014.0 0.0
18/04:30am WNW 9 13 - - - - - - - 10.6 1013.8 0.0
18/04:00am WNW 9 15 - - - - - - - 11.0 1013.8 0.0
18/03:30am W 8 12 - - - - - - - 11.5 1014.1 0.0
18/03:00am WNW 10 15 - - - - - - - 11.7 1014.0 0.0
18/02:30am WNW 9 13 - - - - - - - 11.2 1014.0 0.0
18/02:00am WNW 9 14 - - - - - - - 11.1 1014.2 0.0
18/01:30am WNW 8 12 - - - - - - - 11.1 1014.3 0.0
18/01:00am NW 6 9 - - - - - - - 9.9 1014.4 0.0
18/12:30am WNW 9 12 - - - - - - - 11.2 1014.7 0.0
18/12:00am NW 8 13 - - - - - - - 10.9 1014.9 0.0
 
Date/Time
EST
Wind Sea
Height
m
Swell Vis
km
Cloud Weather Temp
°C
Press
hPa
Rain since
9am
mm
Dir  Spd
kts
Gust
kts
Height
m
Period
s
Dir
17/11:30pm NW 7 12 - - - - - - - 10.8 1015.1 0.0
17/11:00pm NW 7 11 - - - - - - - 11.6 1015.1 0.0
17/10:30pm NW 9 13 - - - - - - - 12.1 1015.0 0.0
17/10:00pm NW 7 12 - - - - - - - 12.0 1015.1 0.0
17/09:30pm NNW 7 11 - - - - - - - 11.9 1015.2 0.0
17/09:00pm NNW 6 8 - - - - - - - 12.2 1015.3 0.0
17/08:30pm NNW 6 8 - - - - - - - 12.8 1015.4 0.0
17/08:00pm N 7 10 - - - - - - - 13.3 1015.5 0.0
17/07:30pm N 7 10 - - - - - - - 13.6 1015.4 0.0
17/07:00pm N 8 11 - - - - - - - 14.5 1015.3 0.0
17/06:30pm N 7 10 - - - - - - - 15.0 1015.4 0.0
17/06:00pm N 8 11 - - - - - - - 15.1 1015.2 0.0
17/05:30pm N 8 12 - - - - - - - 15.3 1015.1 0.0
17/05:00pm N 7 9 - - - - - - - 15.9 1015.0 0.0
17/04:30pm N 7 12 - - - - - - - 16.7 1015.1 0.0
17/04:00pm N 7 11 - - - - - - - 17.7 1015.2 0.0
17/03:30pm NE 8 11 - - - - - - - 18.4 1015.3 0.0
17/03:00pm ENE 9 12 - - - - - - - 18.5 1015.4 0.0
17/02:30pm E 7 10 - - - - - - - 18.5 1015.6 0.0
17/02:00pm ESE 6 8 - - - - - - - 18.9 1015.8 0.0
17/01:30pm E 7 10 - - - - - - - 18.7 1016.1 0.0
17/01:00pm E 7 9 - - - - - - - 18.9 1016.4 0.0
17/12:30pm NE 4 6 - - - - - - - 20.0 1016.7 0.0
17/12:00pm N 4 6 - - - - - - - 20.6 1017.3 0.0
17/11:30am SSW 3 5 - - - - - - - 19.0 1017.9 0.0
17/11:00am SW 4 5 - - - - - - - 17.6 1018.6 0.0
17/10:30am SSW 6 9 - - - - - - - 16.9 1019.2 0.0
17/10:00am SW 5 7 - - - - - - - 15.6 1019.5 0.0
17/09:30am WSW 5 6 - - - - - - - 15.0 1019.5 0.0
17/09:00am W 5 8 - - - - - - - 13.9 1019.5 0.0
17/08:30am W 5 7 - - - - - - - 12.3 1019.4 0.0
17/08:00am WNW 5 7 - - - - - - - 10.1 1019.2 0.0

Other formats

Comma delimited format used in spreadsheet applications
http://www.bom.gov.au/fwo/IDN60701/IDN60701.94598.axf

JavaScript Object Notation format (JSON) in row-major order
http://www.bom.gov.au/fwo/IDN60701/IDN60701.94598.json

Data quality

Most of these data are generated automatically and are frequently updated. Quality checks on data are not normally performed. It is possible for incorrect values to appear. Refer to information at About Latest Weather Observations and please check the disclaimer before using these data.